createdAt,value
2023-04-07T00:00:15.867Z,80
2023-04-07T00:01:22.496Z,80
2023-04-07T00:02:29.715Z,80
2023-04-07T00:03:36.902Z,80
2023-04-07T00:05:50.880Z,80
2023-04-07T00:06:58.017Z,80
2023-04-07T00:08:04.588Z,80
2023-04-07T00:09:11.664Z,80
2023-04-07T00:10:18.891Z,80
2023-04-07T00:11:26.025Z,80
2023-04-07T00:12:32.473Z,80
2023-04-07T00:13:39.645Z,80
2023-04-07T00:14:46.713Z,80
2023-04-07T00:15:53.834Z,81
2023-04-07T00:17:00.946Z,80
2023-04-07T00:18:08.077Z,81
2023-04-07T00:19:14.607Z,81
2023-04-07T00:20:21.696Z,81
2023-04-07T00:21:28.825Z,81
2023-04-07T00:22:36.059Z,81
2023-04-07T00:23:42.476Z,81
2023-04-07T00:24:49.611Z,81
2023-04-07T00:25:56.694Z,81
2023-04-07T00:27:04.107Z,80
2023-04-07T00:28:10.905Z,80
2023-04-07T00:29:18.045Z,80
2023-04-07T00:30:24.595Z,81
2023-04-07T00:31:31.719Z,81
2023-04-07T00:32:38.861Z,81
2023-04-07T00:33:45.980Z,81
2023-04-07T00:34:52.501Z,81
2023-04-07T00:35:59.641Z,81
2023-04-07T00:38:13.877Z,81
2023-04-07T00:39:20.915Z,81
2023-04-07T00:40:28.044Z,81
2023-04-07T00:41:34.593Z,81
2023-04-07T00:42:41.776Z,81
2023-04-07T00:43:48.888Z,81
2023-04-07T00:44:55.974Z,82
2023-04-07T00:46:02.536Z,82
2023-04-07T00:47:09.653Z,82
2023-04-07T00:48:16.765Z,82
2023-04-07T00:49:23.856Z,81
2023-04-07T00:50:30.994Z,81
2023-04-07T00:51:37.534Z,81
2023-04-07T00:52:44.645Z,81
2023-04-07T00:53:51.781Z,81
2023-04-07T00:54:58.826Z,81
2023-04-07T00:56:05.972Z,81
2023-04-07T00:57:12.533Z,81
2023-04-07T00:58:19.673Z,81
2023-04-07T00:59:26.830Z,81
2023-04-07T01:00:33.841Z,81
2023-04-07T01:01:41.006Z,81
2023-04-07T01:02:47.841Z,81
2023-04-07T01:03:55.179Z,81
2023-04-07T01:05:01.903Z,81
2023-04-07T01:06:08.880Z,81
2023-04-07T01:07:16.017Z,82
2023-04-07T01:08:22.542Z,82
2023-04-07T01:09:29.663Z,82
2023-04-07T01:10:36.782Z,82
2023-04-07T01:11:43.850Z,82
2023-04-07T01:12:50.981Z,82
2023-04-07T01:13:58.261Z,82
2023-04-07T01:15:04.700Z,82
2023-04-07T01:16:11.782Z,82
2023-04-07T01:17:18.892Z,82
2023-04-07T01:18:26.038Z,82
2023-04-07T01:19:32.550Z,82
2023-04-07T01:20:39.688Z,82
2023-04-07T01:21:46.807Z,82
2023-04-07T01:22:53.867Z,82
2023-04-07T01:24:01.022Z,82
2023-04-07T01:25:07.577Z,82
2023-04-07T01:26:14.692Z,82
2023-04-07T01:27:21.793Z,82
2023-04-07T01:28:28.953Z,82
2023-04-07T01:29:36.020Z,82
2023-04-07T01:30:42.567Z,82
2023-04-07T01:31:49.730Z,82
2023-04-07T01:34:03.873Z,82
2023-04-07T01:35:10.992Z,82
2023-04-07T01:36:17.685Z,83
2023-04-07T01:37:24.735Z,83
2023-04-07T01:38:31.844Z,83
2023-04-07T01:39:38.920Z,83
2023-04-07T01:41:52.593Z,83
2023-04-07T01:42:59.727Z,83
2023-04-07T01:44:06.825Z,83
2023-04-07T01:45:13.902Z,83
2023-04-07T01:46:21.008Z,83
2023-04-07T01:47:27.756Z,83
2023-04-07T01:48:34.786Z,83
2023-04-07T01:49:41.805Z,83
2023-04-07T01:50:48.943Z,83
2023-04-07T01:51:56.045Z,83
2023-04-07T01:53:02.608Z,83
2023-04-07T01:54:09.750Z,83
2023-04-07T01:55:16.841Z,83
2023-04-07T01:56:23.914Z,83
2023-04-07T01:57:30.522Z,83
2023-04-07T01:58:37.704Z,83
2023-04-07T01:59:44.747Z,83
2023-04-07T02:00:51.892Z,83
2023-04-07T02:01:58.989Z,83
2023-04-07T02:03:06.197Z,83
2023-04-07T02:04:12.713Z,83
2023-04-07T02:05:19.878Z,83
2023-04-07T02:06:26.855Z,83
2023-04-07T02:07:33.933Z,83
2023-04-07T02:08:40.514Z,83
2023-04-07T02:09:48.734Z,84
2023-04-07T02:10:54.754Z,84
2023-04-07T02:12:01.835Z,84
2023-04-07T02:13:08.981Z,84
2023-04-07T02:14:16.118Z,84
2023-04-07T02:15:22.638Z,84
2023-04-07T02:16:29.808Z,84
2023-04-07T02:17:36.899Z,84
2023-04-07T02:18:43.970Z,84
2023-04-07T02:19:50.548Z,84
2023-04-07T02:20:57.671Z,84
2023-04-07T02:22:04.778Z,84
2023-04-07T02:23:11.849Z,84
2023-04-07T02:24:19.105Z,84
2023-04-07T02:25:26.091Z,84
2023-04-07T02:26:34.857Z,84
2023-04-07T02:27:39.761Z,84
2023-04-07T02:28:46.883Z,84
2023-04-07T02:29:53.976Z,84
2023-04-07T02:31:00.551Z,84
2023-04-07T02:32:07.737Z,84
2023-04-07T02:33:14.828Z,84
2023-04-07T02:34:21.917Z,84
2023-04-07T02:35:28.998Z,84
2023-04-07T02:36:36.194Z,84
2023-04-07T02:37:42.678Z,84
2023-04-07T02:38:49.822Z,84
2023-04-07T02:39:56.917Z,84
2023-04-07T02:41:03.978Z,84
2023-04-07T02:42:13.472Z,84
2023-04-07T02:43:17.703Z,84
2023-04-07T02:45:31.881Z,85
2023-04-07T02:46:39.017Z,85
2023-04-07T02:47:45.639Z,85
2023-04-07T02:48:52.724Z,85
2023-04-07T02:49:59.867Z,85
2023-04-07T02:51:06.911Z,85
2023-04-07T02:52:14.005Z,85
2023-04-07T02:53:20.590Z,85
2023-04-07T02:54:27.720Z,85
2023-04-07T02:55:34.854Z,85
2023-04-07T02:56:41.899Z,85
2023-04-07T02:57:49.031Z,85
2023-04-07T02:58:56.182Z,85
2023-04-07T03:00:02.702Z,85
2023-04-07T03:02:17.030Z,85
2023-04-07T03:03:24.225Z,85
2023-04-07T03:04:30.620Z,85
2023-04-07T03:05:37.732Z,85
2023-04-07T03:06:44.896Z,85
2023-04-07T03:07:51.914Z,85
2023-04-07T03:08:59.042Z,85
2023-04-07T03:10:05.615Z,85
2023-04-07T03:11:12.711Z,85
2023-04-07T03:12:19.838Z,85
2023-04-07T03:13:26.982Z,85
2023-04-07T03:14:34.018Z,85
2023-04-07T03:15:40.603Z,85
2023-04-07T03:16:47.817Z,85
2023-04-07T03:17:54.884Z,85
2023-04-07T03:19:01.930Z,85
2023-04-07T03:20:09.063Z,85
2023-04-07T03:21:15.649Z,85
2023-04-07T03:22:22.735Z,85
2023-04-07T03:23:29.892Z,85
2023-04-07T03:24:36.970Z,85
2023-04-07T03:25:44.065Z,85
2023-04-07T03:26:50.610Z,85
2023-04-07T03:27:57.767Z,85
2023-04-07T03:29:04.922Z,85
2023-04-07T03:30:11.975Z,85
2023-04-07T03:31:19.171Z,86
2023-04-07T03:32:25.673Z,86
2023-04-07T03:33:32.785Z,86
2023-04-07T03:34:39.877Z,86
2023-04-07T03:35:47.006Z,86
2023-04-07T03:36:54.073Z,86
2023-04-07T03:38:01.685Z,86
2023-04-07T03:39:07.825Z,86
2023-04-07T03:40:14.876Z,86
2023-04-07T03:41:21.954Z,86
2023-04-07T03:42:28.579Z,86
2023-04-07T03:43:35.686Z,86
2023-04-07T03:44:42.753Z,86
2023-04-07T03:45:49.883Z,86
2023-04-07T03:46:57.002Z,86
2023-04-07T03:49:10.700Z,86
2023-04-07T03:50:17.798Z,86
2023-04-07T03:51:24.886Z,86
2023-04-07T03:52:31.977Z,86
2023-04-07T03:53:38.621Z,86
2023-04-07T03:54:45.705Z,86
2023-04-07T03:55:52.773Z,86
2023-04-07T03:56:59.895Z,86
2023-04-07T03:58:07.009Z,86
2023-04-07T03:59:14.092Z,86
2023-04-07T04:00:20.771Z,86
2023-04-07T04:01:27.850Z,86
2023-04-07T04:02:35.062Z,86
2023-04-07T04:03:42.184Z,86
2023-04-07T04:04:48.679Z,87
2023-04-07T04:05:55.704Z,87
2023-04-07T04:07:02.809Z,87
2023-04-07T04:08:09.915Z,87
2023-04-07T04:09:17.082Z,87
2023-04-07T04:10:24.108Z,87
2023-04-07T04:11:30.683Z,87
2023-04-07T04:12:37.853Z,87
2023-04-07T04:13:44.963Z,87
2023-04-07T04:14:52.000Z,87
2023-04-07T04:15:58.664Z,87
2023-04-07T04:17:05.884Z,87
2023-04-07T04:18:12.802Z,87
2023-04-07T04:19:19.971Z,87
2023-04-07T04:20:27.047Z,87
2023-04-07T04:21:34.109Z,87
2023-04-07T04:22:40.700Z,87
2023-04-07T04:23:47.861Z,87
2023-04-07T04:24:54.914Z,88
2023-04-07T04:26:02.033Z,88
2023-04-07T04:27:08.592Z,88
2023-04-07T04:28:15.773Z,88
2023-04-07T04:30:30.033Z,88
2023-04-07T04:31:37.096Z,88
2023-04-07T04:32:44.156Z,88
2023-04-07T04:33:51.037Z,88
2023-04-07T04:34:57.851Z,88
2023-04-07T04:36:05.052Z,88
2023-04-07T04:37:12.037Z,89
2023-04-07T04:38:18.666Z,89
2023-04-07T04:39:25.774Z,89
2023-04-07T04:40:32.832Z,89
2023-04-07T04:41:39.977Z,89
2023-04-07T04:42:47.074Z,89
2023-04-07T04:43:53.667Z,89
2023-04-07T04:45:00.725Z,89
2023-04-07T04:46:07.861Z,89
2023-04-07T04:47:15.174Z,89
2023-04-07T04:48:22.054Z,89
2023-04-07T04:49:28.664Z,89
2023-04-07T04:50:35.772Z,89
2023-04-07T04:52:49.982Z,89
2023-04-07T04:53:57.145Z,89
2023-04-07T04:55:04.161Z,89
2023-04-07T04:56:10.741Z,89
2023-04-07T04:57:17.869Z,89
2023-04-07T04:58:25.007Z,89
2023-04-07T04:59:32.064Z,89
2023-04-07T05:00:38.710Z,89
2023-04-07T05:01:45.858Z,89
2023-04-07T05:02:53.056Z,89
2023-04-07T05:04:00.437Z,89
2023-04-07T05:05:07.170Z,89
2023-04-07T05:06:14.735Z,89
2023-04-07T05:07:20.754Z,89
2023-04-07T05:08:27.907Z,89
2023-04-07T05:09:35.022Z,89
2023-04-07T05:10:42.095Z,89
2023-04-07T05:11:48.688Z,89
2023-04-07T05:12:55.838Z,89
2023-04-07T05:14:02.923Z,89
2023-04-07T05:15:10.039Z,89
2023-04-07T05:16:17.157Z,89
2023-04-07T05:17:23.687Z,89
2023-04-07T05:18:30.830Z,89
2023-04-07T05:19:37.910Z,89
2023-04-07T05:20:45.055Z,89
2023-04-07T05:21:52.093Z,89
2023-04-07T05:22:58.698Z,89
2023-04-07T05:24:08.081Z,89
2023-04-07T05:25:12.891Z,89
2023-04-07T05:26:20.032Z,89
2023-04-07T05:27:27.132Z,89
2023-04-07T05:28:33.739Z,89
2023-04-07T05:29:40.790Z,89
2023-04-07T05:30:47.933Z,89
2023-04-07T05:31:55.086Z,89
2023-04-07T05:33:02.160Z,89
2023-04-07T05:34:08.742Z,89
2023-04-07T05:35:15.830Z,89
2023-04-07T05:36:22.930Z,89
2023-04-07T05:37:30.079Z,89
2023-04-07T05:38:36.655Z,89
2023-04-07T05:39:43.706Z,89
2023-04-07T05:40:50.801Z,89
2023-04-07T05:41:57.976Z,89
2023-04-07T05:43:05.067Z,89
2023-04-07T05:44:12.167Z,89
2023-04-07T05:45:18.742Z,89
2023-04-07T05:46:25.849Z,89
2023-04-07T05:47:33.005Z,89
2023-04-07T05:48:40.076Z,89
2023-04-07T05:49:46.720Z,89
2023-04-07T05:50:53.721Z,89
2023-04-07T05:52:00.823Z,89
2023-04-07T05:53:07.967Z,89
2023-04-07T05:54:15.139Z,89
2023-04-07T05:56:28.758Z,89
2023-04-07T05:58:42.984Z,89
2023-04-07T05:59:50.075Z,89
2023-04-07T06:00:56.656Z,89
2023-04-07T06:02:03.818Z,89
2023-04-07T06:03:10.976Z,89
2023-04-07T06:04:18.042Z,89
2023-04-07T06:05:25.097Z,89
2023-04-07T06:06:32.143Z,89
2023-04-07T06:07:38.769Z,89
2023-04-07T06:08:45.915Z,89
2023-04-07T06:09:52.949Z,89
2023-04-07T06:11:00.116Z,89
2023-04-07T06:12:06.674Z,89
2023-04-07T06:13:13.737Z,89
2023-04-07T06:14:20.886Z,89
2023-04-07T06:15:27.957Z,89
2023-04-07T06:16:35.142Z,89
2023-04-07T06:17:42.203Z,89
2023-04-07T06:18:48.824Z,90
2023-04-07T06:19:55.881Z,90
2023-04-07T06:21:02.985Z,90
2023-04-07T06:22:10.112Z,90
2023-04-07T06:23:16.687Z,90
2023-04-07T06:24:23.817Z,90
2023-04-07T06:25:30.887Z,90
2023-04-07T06:26:37.975Z,90
2023-04-07T06:27:45.114Z,90
2023-04-07T06:28:52.190Z,90
2023-04-07T06:29:58.802Z,90
2023-04-07T06:31:05.942Z,90
2023-04-07T06:32:13.569Z,90
2023-04-07T06:33:20.123Z,90
2023-04-07T06:34:27.845Z,90
2023-04-07T06:35:33.771Z,90
2023-04-07T06:36:40.919Z,91
2023-04-07T06:37:47.998Z,91
2023-04-07T06:38:54.575Z,91
2023-04-07T06:40:02.319Z,91
2023-04-07T06:41:08.809Z,91
2023-04-07T06:42:16.088Z,91
2023-04-07T06:43:22.999Z,91
2023-04-07T06:44:30.175Z,91
2023-04-07T06:45:36.736Z,91
2023-04-07T06:46:44.102Z,91
2023-04-07T06:47:50.944Z,91
2023-04-07T06:48:58.084Z,91
2023-04-07T06:50:05.212Z,91
2023-04-07T06:51:12.133Z,91
2023-04-07T06:52:18.882Z,91
2023-04-07T06:53:25.965Z,91
2023-04-07T06:54:33.230Z,91
2023-04-07T06:55:40.170Z,91
2023-04-07T06:56:46.757Z,91
2023-04-07T06:57:53.819Z,92
2023-04-07T07:01:14.726Z,92
2023-04-07T07:02:22.511Z,92
2023-04-07T07:03:29.111Z,92
2023-04-07T07:04:35.961Z,92
2023-04-07T07:05:43.021Z,96
2023-04-07T07:06:50.171Z,92
2023-04-07T07:07:56.777Z,93
2023-04-07T07:09:03.907Z,93
2023-04-07T07:10:10.938Z,93
2023-04-07T07:11:18.069Z,93
2023-04-07T07:12:25.180Z,94
2023-04-07T07:13:31.752Z,94
2023-04-07T07:14:38.918Z,94
2023-04-07T07:15:46.033Z,94
2023-04-07T07:16:53.059Z,94
2023-04-07T07:18:00.796Z,95
2023-04-07T07:19:06.798Z,96
2023-04-07T07:20:13.855Z,96
2023-04-07T07:21:20.977Z,97
2023-04-07T07:22:28.079Z,98
2023-04-07T07:23:34.670Z,98
2023-04-07T07:24:41.737Z,98
2023-04-07T07:25:49.126Z,98
2023-04-07T07:26:56.028Z,98
2023-04-07T07:28:02.534Z,98
2023-04-07T07:29:10.229Z,98
2023-04-07T07:30:16.792Z,98
2023-04-07T07:31:23.870Z,98
2023-04-07T07:33:38.093Z,98
2023-04-07T07:34:44.741Z,98
2023-04-07T07:35:51.829Z,98
2023-04-07T07:36:58.884Z,98
2023-04-07T07:38:06.034Z,98
2023-04-07T07:39:13.195Z,98
2023-04-07T07:40:20.216Z,98
2023-04-07T07:41:26.772Z,98
2023-04-07T07:42:33.887Z,100
2023-04-07T07:43:41.041Z,100
2023-04-07T07:44:48.107Z,100
2023-04-07T07:45:54.687Z,100
2023-04-07T07:47:01.768Z,100
2023-04-07T07:48:08.891Z,100
2023-04-07T07:49:16.009Z,99
2023-04-07T07:50:23.078Z,99
2023-04-07T07:51:30.226Z,99
2023-04-07T07:52:36.803Z,99
2023-04-07T07:53:43.956Z,99
2023-04-07T07:54:50.994Z,99
2023-04-07T07:55:58.157Z,99
2023-04-07T07:57:04.728Z,99
2023-04-07T07:58:11.797Z,99
2023-04-07T07:59:18.889Z,99
2023-04-07T08:00:26.048Z,98
2023-04-07T08:01:33.135Z,98
2023-04-07T08:03:47.398Z,96
2023-04-07T08:04:53.916Z,96
2023-04-07T08:06:01.018Z,96
2023-04-07T08:07:08.134Z,94
2023-04-07T08:11:36.160Z,92
2023-04-07T08:12:43.181Z,92
2023-04-07T08:13:50.626Z,92
2023-04-07T08:14:56.854Z,92
2023-04-07T08:16:04.003Z,91
2023-04-07T08:17:11.016Z,91
2023-04-07T08:18:18.146Z,91
2023-04-07T08:19:24.750Z,90
2023-04-07T08:20:31.820Z,90
2023-04-07T08:21:39.471Z,90
2023-04-07T08:23:52.674Z,89
2023-04-07T08:24:59.748Z,88
2023-04-07T08:26:06.859Z,88
2023-04-07T08:27:13.957Z,87
2023-04-07T08:28:21.041Z,87
2023-04-07T08:29:29.095Z,87
2023-04-07T08:30:34.756Z,87
2023-04-07T08:31:41.894Z,86
2023-04-07T08:32:49.009Z,86
2023-04-07T08:33:56.088Z,86
2023-04-07T08:35:02.712Z,86
2023-04-07T08:36:09.818Z,86
2023-04-07T08:37:16.856Z,85
2023-04-07T08:38:23.960Z,85
2023-04-07T08:40:38.227Z,84
2023-04-07T08:41:44.759Z,84
2023-04-07T08:42:51.847Z,82
2023-04-07T08:43:59.034Z,82
2023-04-07T08:45:06.085Z,82
2023-04-07T08:46:12.740Z,81
2023-04-07T08:47:19.997Z,81
2023-04-07T08:48:26.919Z,80
2023-04-07T08:49:34.051Z,79
2023-04-07T08:50:41.086Z,79
2023-04-07T08:51:48.355Z,79
2023-04-07T08:52:54.774Z,78
2023-04-07T08:54:01.882Z,78
2023-04-07T08:55:08.996Z,77
2023-04-07T08:56:16.102Z,77
2023-04-07T08:57:22.722Z,77
2023-04-07T08:58:29.802Z,77
2023-04-07T08:59:36.913Z,76
2023-04-07T09:00:44.023Z,76
2023-04-07T09:01:51.146Z,76
2023-04-07T09:02:58.351Z,75
2023-04-07T09:05:11.875Z,74
2023-04-07T09:07:26.116Z,73
2023-04-07T09:08:32.805Z,73
2023-04-07T09:09:39.823Z,72
2023-04-07T09:10:46.924Z,72
2023-04-07T09:11:53.974Z,72
2023-04-07T09:13:01.092Z,72
2023-04-07T09:14:08.233Z,71
2023-04-07T09:15:14.804Z,71
2023-04-07T09:16:21.911Z,71
2023-04-07T09:17:29.042Z,71
2023-04-07T09:18:36.123Z,72
2023-04-07T09:19:42.728Z,72
2023-04-07T09:20:49.824Z,72
2023-04-07T09:21:56.926Z,72
2023-04-07T09:23:03.999Z,72
2023-04-07T09:24:11.092Z,71
2023-04-07T09:25:18.772Z,70
2023-04-07T09:26:24.934Z,70
2023-04-07T09:27:31.902Z,70
2023-04-07T09:28:39.034Z,70
2023-04-07T09:29:46.175Z,69
2023-04-07T09:30:53.226Z,69
2023-04-07T09:31:59.846Z,69
2023-04-07T09:33:07.004Z,69
2023-04-07T09:34:14.088Z,69
2023-04-07T09:35:20.591Z,69
2023-04-07T09:36:27.745Z,69
2023-04-07T09:37:34.923Z,69
2023-04-07T09:38:41.931Z,69
2023-04-07T09:39:49.180Z,68
2023-04-07T09:40:56.597Z,68
2023-04-07T09:42:02.710Z,68
2023-04-07T09:43:09.849Z,68
2023-04-07T09:44:16.949Z,68
2023-04-07T09:45:34.028Z,68
2023-04-07T09:46:30.631Z,68
2023-04-07T09:47:37.811Z,68
2023-04-07T09:48:44.850Z,68
2023-04-07T09:49:51.989Z,67
2023-04-07T09:50:59.059Z,67
2023-04-07T09:52:06.142Z,67
2023-04-07T09:53:12.737Z,67
2023-04-07T09:54:19.850Z,67
2023-04-07T09:55:26.968Z,67
2023-04-07T09:56:34.043Z,67
2023-04-07T09:57:40.641Z,67
2023-04-07T09:58:47.783Z,66
2023-04-07T09:59:54.919Z,66
2023-04-07T10:01:02.035Z,66
2023-04-07T10:02:09.327Z,66
2023-04-07T10:03:15.776Z,66
2023-04-07T10:04:22.851Z,66
2023-04-07T10:05:29.882Z,65
2023-04-07T10:06:37.004Z,65
2023-04-07T10:07:44.054Z,65
2023-04-07T10:08:50.653Z,65
2023-04-07T10:11:04.938Z,64
2023-04-07T10:12:13.637Z,65
2023-04-07T10:13:18.590Z,64
2023-04-07T10:14:25.740Z,64
2023-04-07T10:15:32.764Z,64
2023-04-07T10:16:39.928Z,64
2023-04-07T10:17:47.063Z,64
2023-04-07T10:18:54.074Z,64
2023-04-07T10:20:00.706Z,64
2023-04-07T10:21:07.848Z,64
2023-04-07T10:23:22.001Z,64
2023-04-07T10:24:28.602Z,64
2023-04-07T10:25:35.718Z,64
2023-04-07T10:26:42.784Z,64
2023-04-07T10:27:49.936Z,63
2023-04-07T10:28:57.602Z,63
2023-04-07T10:30:04.108Z,63
2023-04-07T10:31:10.742Z,63
2023-04-07T10:32:17.815Z,63
2023-04-07T10:33:24.925Z,63
2023-04-07T10:34:32.015Z,63
2023-04-07T10:35:38.604Z,63
2023-04-07T10:36:45.713Z,63
2023-04-07T10:37:52.826Z,63
2023-04-07T10:38:59.961Z,62
2023-04-07T10:40:07.010Z,62
2023-04-07T10:41:13.592Z,62
2023-04-07T10:42:20.696Z,62
2023-04-07T10:43:27.844Z,61
2023-04-07T10:44:34.898Z,60
2023-04-07T10:45:42.010Z,61
2023-04-07T10:46:48.630Z,61
2023-04-07T10:47:55.801Z,61
2023-04-07T10:49:02.847Z,60
2023-04-07T10:50:09.934Z,60
2023-04-07T10:51:17.018Z,60
2023-04-07T10:52:24.160Z,60
2023-04-07T10:53:30.711Z,60
2023-04-07T10:54:37.834Z,60
2023-04-07T10:55:45.163Z,60
2023-04-07T10:56:52.026Z,60
2023-04-07T10:57:58.646Z,60
2023-04-07T10:59:06.267Z,60
2023-04-07T11:00:12.826Z,60
2023-04-07T11:01:20.025Z,60
2023-04-07T11:02:27.494Z,60
2023-04-07T11:03:33.793Z,60
2023-04-07T11:04:40.796Z,59
2023-04-07T11:05:47.829Z,59
2023-04-07T11:06:54.957Z,59
2023-04-07T11:08:02.046Z,59
2023-04-07T11:09:08.663Z,59
2023-04-07T11:10:15.976Z,59
2023-04-07T11:11:22.827Z,59
2023-04-07T11:12:29.979Z,59
2023-04-07T11:13:37.081Z,58
2023-04-07T11:14:43.705Z,58
2023-04-07T11:15:50.765Z,58
2023-04-07T11:16:57.844Z,58
2023-04-07T11:18:05.220Z,58
2023-04-07T11:19:12.065Z,59
2023-04-07T11:20:18.681Z,59
2023-04-07T11:21:25.792Z,58
2023-04-07T11:22:32.853Z,58
2023-04-07T11:23:39.992Z,58
2023-04-07T11:24:47.144Z,58
2023-04-07T11:25:53.649Z,59
2023-04-07T11:27:00.753Z,59
2023-04-07T11:28:07.877Z,58
2023-04-07T11:29:14.978Z,58
2023-04-07T11:30:22.079Z,58
2023-04-07T11:31:28.754Z,58
2023-04-07T11:32:36.330Z,58
2023-04-07T11:33:42.870Z,58
2023-04-07T11:34:50.045Z,58
2023-04-07T11:35:56.842Z,58
2023-04-07T11:37:03.664Z,58
2023-04-07T11:38:10.766Z,58
2023-04-07T11:39:18.028Z,57
2023-04-07T11:40:25.012Z,58
2023-04-07T11:41:32.086Z,58
2023-04-07T11:42:38.676Z,57
2023-04-07T11:43:46.042Z,57
2023-04-07T11:44:52.938Z,57
2023-04-07T11:46:00.024Z,57
2023-04-07T11:47:06.655Z,57
2023-04-07T11:48:13.705Z,57
2023-04-07T11:49:20.798Z,57
2023-04-07T11:51:35.000Z,57
2023-04-07T11:52:41.588Z,57
2023-04-07T11:53:48.862Z,57
2023-04-07T11:54:55.862Z,57
2023-04-07T11:56:02.904Z,57
2023-04-07T11:57:10.033Z,57
2023-04-07T11:58:16.643Z,57
2023-04-07T11:59:23.750Z,57
2023-04-07T12:00:30.797Z,57
2023-04-07T12:01:37.959Z,57
2023-04-07T12:02:45.230Z,57
2023-04-07T12:03:53.049Z,57
2023-04-07T12:04:58.965Z,57
2023-04-07T12:06:05.854Z,57
2023-04-07T12:07:12.932Z,57
2023-04-07T12:08:20.055Z,57
2023-04-07T12:09:26.681Z,57
2023-04-07T12:10:33.718Z,57
2023-04-07T12:11:40.816Z,57
2023-04-07T12:12:47.964Z,56
2023-04-07T12:13:55.048Z,56
2023-04-07T12:15:02.142Z,57
2023-04-07T12:16:08.752Z,56
2023-04-07T12:18:22.930Z,56
2023-04-07T12:19:30.131Z,56
2023-04-07T12:20:37.763Z,56
2023-04-07T12:21:43.724Z,56
2023-04-07T12:22:50.819Z,56
2023-04-07T12:23:57.977Z,56
2023-04-07T12:25:05.061Z,56
2023-04-07T12:26:11.636Z,57
2023-04-07T12:27:21.230Z,57
2023-04-07T12:28:25.861Z,56
2023-04-07T12:29:32.937Z,56
2023-04-07T12:30:40.058Z,56
2023-04-07T12:31:48.607Z,56
2023-04-07T12:32:53.791Z,56
2023-04-07T12:34:00.841Z,56
2023-04-07T12:35:08.028Z,56
2023-04-07T12:36:15.622Z,56
2023-04-07T12:37:21.681Z,56
2023-04-07T12:38:28.814Z,56
2023-04-07T12:39:35.877Z,56
2023-04-07T12:40:42.952Z,56
2023-04-07T12:41:49.649Z,56
2023-04-07T12:42:56.687Z,56
2023-04-07T12:44:03.755Z,56
2023-04-07T12:45:10.910Z,56
2023-04-07T12:46:18.072Z,56
2023-04-07T12:47:24.691Z,56
2023-04-07T12:48:31.661Z,56
2023-04-07T12:49:38.801Z,56
2023-04-07T12:50:45.901Z,55
2023-04-07T12:51:52.978Z,55
2023-04-07T12:53:00.131Z,55
2023-04-07T12:54:06.742Z,55
2023-04-07T12:55:13.766Z,55
2023-04-07T12:56:20.906Z,55
2023-04-07T12:57:28.068Z,55
2023-04-07T12:58:34.599Z,55
2023-04-07T12:59:41.722Z,55
2023-04-07T13:00:48.813Z,55
2023-04-07T13:01:56.099Z,55
2023-04-07T13:03:03.114Z,55
2023-04-07T13:04:09.723Z,55
2023-04-07T13:05:16.715Z,54
2023-04-07T13:06:23.790Z,54
2023-04-07T13:07:30.879Z,55
2023-04-07T13:08:38.021Z,55
2023-04-07T13:09:44.628Z,55
2023-04-07T13:10:51.700Z,55
2023-04-07T13:11:58.835Z,55
2023-04-07T13:13:06.012Z,55
2023-04-07T13:14:13.000Z,55
2023-04-07T13:15:20.132Z,55
2023-04-07T13:16:26.782Z,54
2023-04-07T13:17:33.814Z,54
2023-04-07T13:19:48.041Z,54
2023-04-07T13:21:24.791Z,54
2023-04-07T13:22:05.756Z,54
2023-04-07T13:23:10.365Z,54
2023-04-07T13:24:16.036Z,54
2023-04-07T13:25:23.080Z,54
2023-04-07T13:26:29.631Z,54
2023-04-07T13:27:36.746Z,54
2023-04-07T13:28:43.912Z,54
2023-04-07T13:29:50.984Z,54
2023-04-07T13:30:58.126Z,54
2023-04-07T13:32:04.662Z,54
2023-04-07T13:33:11.714Z,54
2023-04-07T13:34:18.904Z,53
2023-04-07T13:35:25.962Z,53
2023-04-07T13:36:33.035Z,53
2023-04-07T13:37:39.649Z,53
2023-04-07T13:38:46.747Z,53
2023-04-07T13:39:54.398Z,53
2023-04-07T13:41:00.948Z,53
2023-04-07T13:43:14.622Z,53
2023-04-07T13:44:21.726Z,52
2023-04-07T13:45:28.864Z,52
2023-04-07T13:46:36.034Z,52
2023-04-07T13:47:42.579Z,52
2023-04-07T13:48:49.661Z,53
2023-04-07T13:49:56.833Z,53
2023-04-07T13:51:03.842Z,53
2023-04-07T13:52:13.682Z,52
2023-04-07T13:53:19.132Z,52
2023-04-07T13:54:24.631Z,53
2023-04-07T13:55:32.271Z,53
2023-04-07T13:56:38.887Z,52
2023-04-07T13:57:46.003Z,52
2023-04-07T13:58:52.547Z,52
2023-04-07T13:59:59.690Z,52
2023-04-07T14:01:06.823Z,52
2023-04-07T14:02:14.051Z,52
2023-04-07T14:03:21.146Z,52
2023-04-07T14:04:27.718Z,52
2023-04-07T14:05:34.652Z,52
2023-04-07T14:06:41.769Z,52
2023-04-07T14:07:48.865Z,52
2023-04-07T14:08:55.996Z,51
2023-04-07T14:10:02.556Z,52
2023-04-07T14:11:09.701Z,51
2023-04-07T14:12:16.785Z,51
2023-04-07T14:13:23.890Z,51
2023-04-07T14:14:30.975Z,51
2023-04-07T14:15:37.624Z,51
2023-04-07T14:16:44.810Z,51
2023-04-07T14:17:51.798Z,51
2023-04-07T14:18:58.912Z,51
2023-04-07T14:20:06.077Z,51
2023-04-07T14:21:12.566Z,51
2023-04-07T14:22:19.710Z,51
2023-04-07T14:23:51.284Z,51
2023-04-07T14:24:33.884Z,51
2023-04-07T14:25:41.041Z,52
2023-04-07T14:26:47.619Z,51
2023-04-07T14:27:54.852Z,51
2023-04-07T14:29:01.785Z,52
2023-04-07T14:30:08.911Z,51
2023-04-07T14:31:16.114Z,51
2023-04-07T14:32:22.717Z,51
2023-04-07T14:33:29.724Z,51
2023-04-07T14:34:36.871Z,51
2023-04-07T14:35:44.020Z,51
2023-04-07T14:36:51.000Z,51
2023-04-07T14:37:57.624Z,51
2023-04-07T14:39:04.721Z,51
2023-04-07T14:40:11.843Z,51
2023-04-07T14:41:18.947Z,51
2023-04-07T14:42:25.492Z,51
2023-04-07T14:43:33.665Z,51
2023-04-07T14:44:39.735Z,51
2023-04-07T14:45:46.848Z,51
2023-04-07T14:48:01.081Z,50
2023-04-07T14:49:07.636Z,50
2023-04-07T14:50:14.833Z,50
2023-04-07T14:51:21.838Z,51
2023-04-07T14:52:28.970Z,51
2023-04-07T14:53:36.034Z,51
2023-04-07T14:54:42.620Z,51
2023-04-07T14:55:49.764Z,51
2023-04-07T14:56:56.864Z,51
2023-04-07T14:58:03.932Z,51
2023-04-07T14:59:11.044Z,51
2023-04-07T15:00:17.665Z,51
2023-04-07T15:01:24.805Z,51
2023-04-07T15:02:31.962Z,51
2023-04-07T15:03:39.225Z,51
2023-04-07T15:04:45.830Z,51
2023-04-07T15:05:52.639Z,51
2023-04-07T15:06:59.749Z,50
2023-04-07T15:08:06.893Z,50
2023-04-07T15:09:13.981Z,50
2023-04-07T15:10:20.590Z,50
2023-04-07T15:11:27.689Z,50
2023-04-07T15:12:34.785Z,50
2023-04-07T15:13:41.876Z,50
2023-04-07T15:14:48.995Z,50
2023-04-07T15:15:55.621Z,50
2023-04-07T15:17:02.685Z,50
2023-04-07T15:18:09.866Z,50
2023-04-07T15:19:16.905Z,50
2023-04-07T15:20:24.042Z,50
2023-04-07T15:21:30.564Z,51
2023-04-07T15:22:37.711Z,51
2023-04-07T15:23:45.321Z,51
2023-04-07T15:24:51.870Z,51
2023-04-07T15:25:59.008Z,51
2023-04-07T15:27:05.601Z,51
2023-04-07T15:28:12.665Z,51
2023-04-07T15:29:19.803Z,51
2023-04-07T15:30:26.878Z,51
2023-04-07T15:31:34.049Z,51
2023-04-07T15:32:40.603Z,51
2023-04-07T15:33:47.902Z,51
2023-04-07T15:34:54.857Z,51
2023-04-07T15:36:01.994Z,51
2023-04-07T15:37:09.017Z,51
2023-04-07T15:38:15.612Z,51
2023-04-07T15:39:22.681Z,51
2023-04-07T15:40:29.815Z,51
2023-04-07T15:41:36.925Z,51
2023-04-07T15:42:44.034Z,51
2023-04-07T15:43:50.635Z,51
2023-04-07T15:44:57.777Z,51
2023-04-07T15:46:04.829Z,51
2023-04-07T15:47:12.446Z,51
2023-04-07T15:48:19.038Z,51
2023-04-07T15:49:26.269Z,51
2023-04-07T15:50:32.752Z,51
2023-04-07T15:51:39.858Z,51
2023-04-07T15:52:46.911Z,51
2023-04-07T15:53:54.013Z,51
2023-04-07T15:55:00.646Z,51
2023-04-07T15:56:07.750Z,51
2023-04-07T15:57:14.871Z,51
2023-04-07T15:58:21.994Z,51
2023-04-07T15:59:29.049Z,51
2023-04-07T16:00:35.726Z,51
2023-04-07T16:01:42.812Z,51
2023-04-07T16:02:50.179Z,51
2023-04-07T16:03:57.137Z,51
2023-04-07T16:05:04.138Z,51
2023-04-07T16:06:10.666Z,51
2023-04-07T16:07:17.716Z,51
2023-04-07T16:08:24.897Z,51
2023-04-07T16:09:32.016Z,51
2023-04-07T16:10:39.066Z,51
2023-04-07T16:11:45.659Z,51
2023-04-07T16:12:52.744Z,51
2023-04-07T16:13:59.865Z,51
2023-04-07T16:15:07.040Z,51
2023-04-07T16:16:13.550Z,51
2023-04-07T16:17:20.621Z,51
2023-04-07T16:18:27.757Z,51
2023-04-07T16:19:34.876Z,51
2023-04-07T16:20:41.960Z,51
2023-04-07T16:21:48.566Z,51
2023-04-07T16:22:55.656Z,51
2023-04-07T16:24:02.753Z,51
2023-04-07T16:25:09.919Z,51
2023-04-07T16:26:16.996Z,51
2023-04-07T16:27:23.539Z,51